createdAt,value
2023-02-07T00:00:57.104Z,19.30
2023-02-07T00:03:24.407Z,18.17
2023-02-07T00:05:51.706Z,15.75
2023-02-07T00:08:18.935Z,18.45
2023-02-07T00:10:46.126Z,17.45
2023-02-07T00:13:13.370Z,15.35
2023-02-07T00:15:40.573Z,16.15
2023-02-07T00:18:07.871Z,20.05
2023-02-07T00:20:35.258Z,17.80
2023-02-07T00:23:02.521Z,18.15
2023-02-07T00:25:29.737Z,17.40
2023-02-07T00:27:57.078Z,16.95
2023-02-07T00:30:24.446Z,16.80
2023-02-07T00:32:51.711Z,18.25
2023-02-07T00:35:18.985Z,16.60
2023-02-07T00:37:46.239Z,19.23
2023-02-07T00:40:13.548Z,20.17
2023-02-07T00:42:40.809Z,14.75
2023-02-07T00:45:08.906Z,17.38
2023-02-07T00:47:36.174Z,18.95
2023-02-07T00:50:03.405Z,17.95
2023-02-07T00:52:30.675Z,17.85
2023-02-07T00:54:57.926Z,17.02
2023-02-07T00:57:25.262Z,16.25
2023-02-07T00:59:52.474Z,17.98
2023-02-07T01:02:19.707Z,16.80
2023-02-07T01:04:46.952Z,18.67
2023-02-07T01:07:14.214Z,21.17
2023-02-07T01:09:42.519Z,17.55
2023-02-07T01:12:10.096Z,16.30
2023-02-07T01:14:37.407Z,16.40
2023-02-07T01:17:04.633Z,16.83
2023-02-07T01:19:31.893Z,18.50
2023-02-07T01:22:02.947Z,16.20
2023-02-07T01:24:30.960Z,18.23
2023-02-07T01:26:58.186Z,23.85
2023-02-07T01:29:25.499Z,16.58
2023-02-07T01:31:53.855Z,19.27
2023-02-07T01:34:21.073Z,19.35
2023-02-07T01:36:48.350Z,20.15
2023-02-07T01:39:15.642Z,16.73
2023-02-07T01:41:42.915Z,18.55
2023-02-07T01:44:22.850Z,17.90
2023-02-07T01:46:50.942Z,17.63
2023-02-07T01:49:20.475Z,15.50
2023-02-07T01:54:15.458Z,17.65
2023-02-07T01:56:45.135Z,16.83
2023-02-07T01:59:12.836Z,15.18
2023-02-07T02:01:40.970Z,16.63
2023-02-07T02:04:08.165Z,17.92
2023-02-07T02:06:35.876Z,16.35
2023-02-07T02:09:08.474Z,15.98
2023-02-07T02:11:54.253Z,16.45
2023-02-07T02:14:44.548Z,17.15
2023-02-07T02:17:15.302Z,16.50
2023-02-07T02:19:58.406Z,14.50
2023-02-07T02:22:25.592Z,16.92
2023-02-07T02:24:55.796Z,14.27
2023-02-07T02:27:43.305Z,16.38
2023-02-07T02:30:16.381Z,16.55
2023-02-07T02:32:49.874Z,14.13
2023-02-07T02:35:32.587Z,17.00
2023-02-07T02:38:18.124Z,17.02
2023-02-07T02:40:57.980Z,15.40
2023-02-07T02:43:36.846Z,18.55
2023-02-07T02:46:07.847Z,17.85
2023-02-07T02:48:35.432Z,16.98
2023-02-07T02:51:02.839Z,21.88
2023-02-07T02:53:30.119Z,17.70
2023-02-07T02:56:01.667Z,19.60
2023-02-07T02:58:43.917Z,17.73
2023-02-07T03:01:28.178Z,16.30
2023-02-07T03:03:59.575Z,15.95
2023-02-07T03:06:45.664Z,16.08
2023-02-07T03:09:32.460Z,18.63
2023-02-07T03:12:20.108Z,18.83
2023-02-07T03:14:56.427Z,20.25
2023-02-07T03:17:27.045Z,21.52
2023-02-07T03:20:14.548Z,17.67
2023-02-07T03:22:42.707Z,17.45
2023-02-07T03:25:10.710Z,17.33
2023-02-07T03:27:39.329Z,18.70
2023-02-07T03:30:09.251Z,19.63
2023-02-07T03:32:42.196Z,19.17
2023-02-07T03:35:09.488Z,19.23
2023-02-07T03:37:38.730Z,16.05
2023-02-07T03:40:06.456Z,18.58
2023-02-07T03:42:39.448Z,18.20
2023-02-07T03:45:08.837Z,16.13
2023-02-07T03:47:36.126Z,17.60
2023-02-07T03:50:03.606Z,15.07
2023-02-07T03:52:30.850Z,23.17
2023-02-07T03:54:58.078Z,16.83
2023-02-07T03:57:25.366Z,16.77
2023-02-07T03:59:53.995Z,18.15
2023-02-07T04:02:21.309Z,16.33
2023-02-07T04:04:48.551Z,17.33
2023-02-07T04:07:15.835Z,16.83
2023-02-07T04:09:43.177Z,18.20
2023-02-07T04:12:10.477Z,20.88
2023-02-07T04:14:37.792Z,26.10
2023-02-07T04:17:05.034Z,22.15
2023-02-07T04:19:32.386Z,19.80
2023-02-07T04:21:59.644Z,20.95
2023-02-07T04:24:26.990Z,20.05
2023-02-07T04:26:54.250Z,15.63
2023-02-07T04:29:21.545Z,19.58
2023-02-07T04:31:48.821Z,16.95
2023-02-07T04:34:16.251Z,17.55
2023-02-07T04:36:43.633Z,19.63
2023-02-07T04:39:10.874Z,18.23
2023-02-07T04:41:38.174Z,17.13
2023-02-07T04:44:05.535Z,16.67
2023-02-07T04:46:32.825Z,16.35
2023-02-07T04:49:00.038Z,18.90
2023-02-07T04:51:27.259Z,17.58
2023-02-07T04:53:54.465Z,14.73
2023-02-07T04:56:21.818Z,17.98
2023-02-07T04:58:49.402Z,20.48
2023-02-07T05:01:16.685Z,18.95
2023-02-07T05:03:44.359Z,17.92
2023-02-07T05:06:11.905Z,16.25
2023-02-07T05:08:39.284Z,15.43
2023-02-07T05:11:06.547Z,17.63
2023-02-07T05:13:33.865Z,19.25
2023-02-07T05:16:04.092Z,19.52
2023-02-07T05:18:31.396Z,22.90
2023-02-07T05:20:58.726Z,22.30
2023-02-07T05:23:26.004Z,19.50
2023-02-07T05:25:53.404Z,19.58
2023-02-07T05:28:20.922Z,17.92
2023-02-07T05:30:48.398Z,17.23
2023-02-07T05:33:15.762Z,18.35
2023-02-07T05:35:46.234Z,19.60
2023-02-07T05:38:15.349Z,21.52
2023-02-07T05:40:43.269Z,19.23
2023-02-07T05:43:11.215Z,20.48
2023-02-07T05:45:38.758Z,18.00
2023-02-07T05:48:06.342Z,20.60
2023-02-07T05:50:34.664Z,18.48
2023-02-07T05:53:06.452Z,25.05
2023-02-07T05:55:33.676Z,18.42
2023-02-07T05:58:01.006Z,19.73
2023-02-07T06:00:28.290Z,19.67
2023-02-07T06:02:56.009Z,16.15
2023-02-07T06:05:24.788Z,16.88
2023-02-07T06:07:52.212Z,18.95
2023-02-07T06:10:19.578Z,20.00
2023-02-07T06:12:46.843Z,24.08
2023-02-07T06:15:14.150Z,19.67
2023-02-07T06:17:41.434Z,18.58
2023-02-07T06:20:09.057Z,19.33
2023-02-07T06:22:36.354Z,17.73
2023-02-07T06:25:03.886Z,22.42
2023-02-07T06:27:31.177Z,20.80
2023-02-07T06:29:58.482Z,19.83
2023-02-07T06:32:25.742Z,18.80
2023-02-07T06:34:53.033Z,22.45
2023-02-07T06:37:20.308Z,22.45
2023-02-07T06:39:47.784Z,21.98
2023-02-07T06:42:15.028Z,19.83
2023-02-07T06:44:42.221Z,23.27
2023-02-07T06:47:09.452Z,23.50
2023-02-07T06:49:36.736Z,21.40
2023-02-07T06:52:04.030Z,22.30
2023-02-07T06:54:31.279Z,19.92
2023-02-07T06:56:58.816Z,21.83
2023-02-07T06:59:26.097Z,19.52
2023-02-07T07:01:53.385Z,22.42
2023-02-07T07:04:20.886Z,21.02
2023-02-07T07:06:48.401Z,20.20
2023-02-07T07:09:15.723Z,24.45
2023-02-07T07:11:44.188Z,24.17
2023-02-07T07:14:12.124Z,22.63
2023-02-07T07:16:40.836Z,25.85
2023-02-07T07:19:08.272Z,21.75
2023-02-07T07:21:35.802Z,22.20
2023-02-07T07:24:03.089Z,21.83
2023-02-07T07:26:43.037Z,23.63
2023-02-07T07:29:16.036Z,25.00
2023-02-07T07:31:43.344Z,21.70
2023-02-07T07:34:10.662Z,22.98
2023-02-07T07:36:37.933Z,21.80
2023-02-07T07:39:05.896Z,26.48
2023-02-07T07:41:33.149Z,27.17
2023-02-07T07:44:00.612Z,28.45
2023-02-07T07:46:27.970Z,23.30
2023-02-07T07:48:55.255Z,23.73
2023-02-07T07:51:22.623Z,24.83
2023-02-07T07:53:49.898Z,22.73
2023-02-07T07:56:17.251Z,25.67
2023-02-07T07:58:44.486Z,25.63
2023-02-07T08:01:11.768Z,20.40
2023-02-07T08:03:39.118Z,23.88
2023-02-07T08:06:06.601Z,24.95
2023-02-07T08:08:34.074Z,23.17
2023-02-07T08:11:02.495Z,21.38
2023-02-07T08:13:33.012Z,26.67
2023-02-07T08:16:01.209Z,24.25
2023-02-07T08:18:29.067Z,22.40
2023-02-07T08:20:56.513Z,21.05
2023-02-07T08:23:23.817Z,21.55
2023-02-07T08:25:51.457Z,25.77
2023-02-07T08:28:19.245Z,21.83
2023-02-07T08:30:49.554Z,23.88
2023-02-07T08:33:17.325Z,23.42
2023-02-07T08:35:44.608Z,30.05
2023-02-07T08:38:11.902Z,27.15
2023-02-07T08:40:39.644Z,24.20
2023-02-07T08:43:12.343Z,27.50
2023-02-07T08:45:43.823Z,23.60
2023-02-07T08:48:11.191Z,26.77
2023-02-07T08:50:38.656Z,24.63
2023-02-07T08:53:06.174Z,23.38
2023-02-07T08:55:33.406Z,25.85
2023-02-07T08:58:00.743Z,24.02
2023-02-07T09:00:27.983Z,22.65
2023-02-07T09:02:55.218Z,27.05
2023-02-07T09:05:22.445Z,25.02
2023-02-07T09:07:49.733Z,25.67
2023-02-07T09:10:16.973Z,25.45
2023-02-07T09:12:44.389Z,23.83
2023-02-07T09:15:11.705Z,22.50
2023-02-07T09:17:39.072Z,23.20
2023-02-07T09:20:06.567Z,21.65
2023-02-07T09:22:53.836Z,22.55
2023-02-07T09:25:21.141Z,24.70
2023-02-07T09:27:48.478Z,21.55
2023-02-07T09:30:15.986Z,21.45
2023-02-07T09:32:43.241Z,22.83
2023-02-07T09:35:11.010Z,22.17
2023-02-07T09:37:48.828Z,22.83
2023-02-07T09:40:19.858Z,23.77
2023-02-07T09:42:53.346Z,21.85
2023-02-07T09:45:22.458Z,23.83
2023-02-07T09:47:52.072Z,23.42
2023-02-07T09:52:50.266Z,20.50
2023-02-07T09:55:25.450Z,24.35
2023-02-07T09:57:56.226Z,19.08
2023-02-07T10:00:31.626Z,19.77
2023-02-07T10:03:06.458Z,21.33
2023-02-07T10:05:37.753Z,23.75
2023-02-07T10:08:05.079Z,22.13
2023-02-07T10:10:37.114Z,20.05
2023-02-07T10:13:11.848Z,20.77
2023-02-07T10:15:42.662Z,21.05
2023-02-07T10:18:30.208Z,17.05
2023-02-07T10:21:16.606Z,19.08
2023-02-07T10:23:43.853Z,16.05
2023-02-07T10:26:29.934Z,15.27
2023-02-07T10:29:04.152Z,17.63
2023-02-07T10:31:32.741Z,20.85
2023-02-07T10:34:11.488Z,16.60
2023-02-07T10:36:40.009Z,15.80
2023-02-07T10:39:09.753Z,16.50
2023-02-07T10:41:39.308Z,15.32
2023-02-07T10:44:09.453Z,15.23
2023-02-07T10:46:37.065Z,16.10
2023-02-07T10:49:04.325Z,16.02
2023-02-07T10:51:34.672Z,13.45
2023-02-07T10:54:02.583Z,14.15
2023-02-07T10:56:31.438Z,13.57
2023-02-07T10:58:58.961Z,12.18
2023-02-07T11:01:27.688Z,12.82
2023-02-07T11:03:55.323Z,13.13
2023-02-07T11:06:40.891Z,10.63
2023-02-07T11:09:12.036Z,12.30
2023-02-07T11:11:40.705Z,12.50
2023-02-07T11:14:08.956Z,12.73
2023-02-07T11:16:36.351Z,10.50
2023-02-07T11:19:05.175Z,10.90
2023-02-07T11:21:39.184Z,12.02
2023-02-07T11:24:15.185Z,10.20
2023-02-07T11:26:53.587Z,11.20
2023-02-07T11:29:21.379Z,10.43
2023-02-07T11:31:49.777Z,11.40
2023-02-07T11:34:31.628Z,13.50
2023-02-07T11:37:17.341Z,13.50
2023-02-07T11:39:45.269Z,10.85
2023-02-07T11:42:14.884Z,12.63
2023-02-07T11:47:12.823Z,9.85
2023-02-07T11:49:45.610Z,10.80
2023-02-07T11:52:13.502Z,10.35
2023-02-07T11:54:41.516Z,10.05
2023-02-07T11:57:13.348Z,9.90
2023-02-07T11:59:49.644Z,9.77
2023-02-07T12:02:16.894Z,11.10
2023-02-07T12:04:44.298Z,11.10
2023-02-07T12:07:25.766Z,10.57
2023-02-07T12:10:04.618Z,9.93
2023-02-07T12:12:34.617Z,12.55
2023-02-07T12:15:07.878Z,10.23
2023-02-07T12:17:57.177Z,11.50
2023-02-07T12:20:33.261Z,10.23
2023-02-07T12:25:52.888Z,10.65
2023-02-07T12:28:27.926Z,9.70
2023-02-07T12:30:57.971Z,10.27
2023-02-07T12:33:34.270Z,9.38
2023-02-07T12:36:05.102Z,9.55
2023-02-07T12:38:37.853Z,10.90
2023-02-07T12:41:15.464Z,10.93
2023-02-07T12:43:51.511Z,11.18
2023-02-07T12:46:37.475Z,12.18
2023-02-07T12:49:04.791Z,11.40
2023-02-07T12:51:38.094Z,10.77
2023-02-07T12:54:20.831Z,10.38
2023-02-07T12:56:48.025Z,11.05
2023-02-07T12:59:35.486Z,11.95
2023-02-07T13:02:15.032Z,11.20
2023-02-07T13:05:01.239Z,13.82
2023-02-07T13:07:37.546Z,15.75
2023-02-07T13:10:23.643Z,13.73
2023-02-07T13:13:07.122Z,13.18
2023-02-07T13:16:00.372Z,16.02
2023-02-07T13:18:42.919Z,11.10
2023-02-07T13:23:38.918Z,11.32
2023-02-07T13:26:24.967Z,11.20
2023-02-07T13:28:58.010Z,11.73
2023-02-07T13:31:38.015Z,11.70
2023-02-07T13:34:05.498Z,10.15
2023-02-07T13:36:38.180Z,12.32
2023-02-07T13:39:21.546Z,9.05
2023-02-07T13:41:48.758Z,11.60
2023-02-07T13:44:20.447Z,11.93
2023-02-07T13:47:06.525Z,9.40
2023-02-07T13:49:41.714Z,10.35
2023-02-07T13:52:19.370Z,10.10
2023-02-07T13:55:13.105Z,9.93
2023-02-07T13:58:00.105Z,9.82
2023-02-07T14:00:29.124Z,9.95
2023-02-07T14:02:58.756Z,11.25
2023-02-07T14:05:26.016Z,9.00
2023-02-07T14:07:56.336Z,9.35
2023-02-07T14:10:46.971Z,9.25
2023-02-07T14:13:31.593Z,8.55
2023-02-07T14:16:25.110Z,9.88
2023-02-07T14:18:53.490Z,9.02
2023-02-07T14:21:21.170Z,8.75
2023-02-07T14:24:16.907Z,16.83
2023-02-07T14:26:58.582Z,15.27
2023-02-07T14:29:27.579Z,12.32
2023-02-07T14:31:59.885Z,12.75
2023-02-07T14:34:50.169Z,10.57
2023-02-07T14:37:38.028Z,12.27
2023-02-07T14:40:09.607Z,11.48
2023-02-07T14:42:37.044Z,13.48
2023-02-07T14:45:04.638Z,11.98
2023-02-07T14:47:32.184Z,11.63
2023-02-07T14:50:00.791Z,11.07
2023-02-07T14:52:30.938Z,11.27
2023-02-07T14:55:17.920Z,12.07
2023-02-07T14:57:57.212Z,13.07
2023-02-07T15:00:31.300Z,11.23
2023-02-07T15:03:02.986Z,12.73
2023-02-07T15:05:30.331Z,12.73
2023-02-07T15:08:07.405Z,11.32
2023-02-07T15:10:41.915Z,12.68
2023-02-07T15:13:20.630Z,11.68
2023-02-07T15:15:51.268Z,12.88
2023-02-07T15:18:19.637Z,11.90
2023-02-07T15:20:54.188Z,12.50
2023-02-07T15:23:22.369Z,13.50
2023-02-07T15:25:49.772Z,10.93
2023-02-07T15:28:28.059Z,11.45
2023-02-07T15:31:15.790Z,11.98
2023-02-07T15:33:51.251Z,12.30
2023-02-07T15:36:45.795Z,11.50
2023-02-07T15:39:18.217Z,11.88
2023-02-07T15:41:46.760Z,12.13
2023-02-07T15:44:26.134Z,11.52
2023-02-07T15:46:54.950Z,10.90
2023-02-07T15:49:26.917Z,12.73
2023-02-07T15:51:55.474Z,13.30
2023-02-07T15:54:23.318Z,14.93
2023-02-07T15:56:56.569Z,12.20
2023-02-07T15:59:24.115Z,13.30
2023-02-07T16:01:52.628Z,19.42
2023-02-07T16:04:19.948Z,23.20
2023-02-07T16:07:10.612Z,18.05
2023-02-07T16:09:45.042Z,14.18
2023-02-07T16:12:31.979Z,15.73
2023-02-07T16:15:00.195Z,14.43
2023-02-07T16:17:37.823Z,17.35
2023-02-07T16:20:05.170Z,13.82
2023-02-07T16:22:32.910Z,15.63
2023-02-07T16:25:01.478Z,12.98
2023-02-07T16:27:31.787Z,14.40
2023-02-07T16:29:59.984Z,13.20
2023-02-07T16:32:31.637Z,13.27
2023-02-07T16:35:00.373Z,12.90
2023-02-07T16:37:28.615Z,12.95
2023-02-07T16:39:55.986Z,13.60
2023-02-07T16:42:23.218Z,12.98
2023-02-07T16:44:50.477Z,12.80
2023-02-07T16:47:18.641Z,15.38
2023-02-07T16:49:46.336Z,14.63
2023-02-07T16:52:13.831Z,13.45
2023-02-07T16:54:41.326Z,14.52
2023-02-07T16:57:10.928Z,12.65
2023-02-07T16:59:38.314Z,16.70
2023-02-07T17:02:11.977Z,14.15
2023-02-07T17:04:39.185Z,16.33
2023-02-07T17:07:06.437Z,15.63
2023-02-07T17:09:33.739Z,17.33
2023-02-07T17:12:01.034Z,13.65
2023-02-07T17:14:28.762Z,14.38
2023-02-07T17:16:56.735Z,15.13
2023-02-07T17:19:27.287Z,16.00
2023-02-07T17:21:56.552Z,14.10
2023-02-07T17:24:23.965Z,16.05
2023-02-07T17:26:53.158Z,13.13
2023-02-07T17:29:20.615Z,14.95
2023-02-07T17:31:48.821Z,14.38
2023-02-07T17:34:16.188Z,13.90
2023-02-07T17:36:46.227Z,15.75
2023-02-07T17:39:14.147Z,13.13
2023-02-07T17:41:41.471Z,15.10
2023-02-07T17:44:08.803Z,13.85
2023-02-07T17:46:36.107Z,13.32
2023-02-07T17:49:03.335Z,14.88
2023-02-07T17:51:30.597Z,13.82
2023-02-07T17:53:57.876Z,13.98
2023-02-07T17:56:29.328Z,14.07
2023-02-07T17:58:57.871Z,13.80
2023-02-07T18:01:25.182Z,13.90
2023-02-07T18:03:54.639Z,12.95
2023-02-07T18:06:23.732Z,14.02
2023-02-07T18:08:51.329Z,14.32
2023-02-07T18:11:18.647Z,14.65
2023-02-07T18:13:47.451Z,14.38
2023-02-07T18:16:15.741Z,15.15
2023-02-07T18:18:43.112Z,13.27
2023-02-07T18:21:12.610Z,13.52
2023-02-07T18:23:42.808Z,12.73
2023-02-07T18:26:15.057Z,13.52
2023-02-07T18:28:43.122Z,12.38
2023-02-07T18:31:14.912Z,13.48
2023-02-07T18:33:42.212Z,13.95
2023-02-07T18:36:09.765Z,14.27
2023-02-07T18:38:37.335Z,14.73
2023-02-07T18:41:11.025Z,14.98
2023-02-07T18:43:39.354Z,16.38
2023-02-07T18:46:10.352Z,16.10
2023-02-07T18:48:38.047Z,19.10
2023-02-07T18:51:10.335Z,22.83
2023-02-07T18:53:37.934Z,22.08
2023-02-07T18:56:12.609Z,18.75
2023-02-07T18:58:39.927Z,17.70
2023-02-07T19:01:10.889Z,18.88
2023-02-07T19:03:38.569Z,17.85
2023-02-07T19:06:06.503Z,16.50
2023-02-07T19:08:33.844Z,16.73
2023-02-07T19:11:02.897Z,18.25
2023-02-07T19:13:30.643Z,17.38
2023-02-07T19:16:03.753Z,17.55
2023-02-07T19:18:31.098Z,15.98
2023-02-07T19:21:02.954Z,16.27
2023-02-07T19:23:30.219Z,17.45
2023-02-07T19:25:57.475Z,17.67
2023-02-07T19:28:24.852Z,19.20
2023-02-07T19:30:52.413Z,17.42
2023-02-07T19:33:19.796Z,17.05
2023-02-07T19:35:47.666Z,16.27
2023-02-07T19:38:15.624Z,17.77
2023-02-07T19:40:43.578Z,20.42
2023-02-07T19:43:10.825Z,16.48
2023-02-07T19:45:38.659Z,17.17
2023-02-07T19:48:06.025Z,18.35
2023-02-07T19:50:33.327Z,17.20
2023-02-07T19:53:00.642Z,18.02
2023-02-07T19:55:27.935Z,17.02
2023-02-07T19:57:55.260Z,19.77
2023-02-07T20:00:22.487Z,20.15
2023-02-07T20:02:49.727Z,18.30
2023-02-07T20:05:16.947Z,19.35
2023-02-07T20:07:44.310Z,21.48
2023-02-07T20:10:12.621Z,21.00
2023-02-07T20:12:39.930Z,22.52
2023-02-07T20:15:07.305Z,23.35
2023-02-07T20:17:35.701Z,22.00
2023-02-07T20:20:03.082Z,24.05
2023-02-07T20:22:30.439Z,23.42
2023-02-07T20:24:57.743Z,22.02
2023-02-07T20:27:24.941Z,23.30
2023-02-07T20:29:52.347Z,24.30
2023-02-07T20:32:19.775Z,23.35
2023-02-07T20:34:47.086Z,25.35
2023-02-07T20:37:14.392Z,23.55
2023-02-07T20:39:41.660Z,22.85
2023-02-07T20:42:09.043Z,23.35
2023-02-07T20:44:36.543Z,23.23
2023-02-07T20:47:04.824Z,21.10
2023-02-07T20:49:32.395Z,20.60
2023-02-07T20:52:00.049Z,20.27
2023-02-07T20:54:28.311Z,18.08
2023-02-07T20:56:56.256Z,19.27
2023-02-07T20:59:25.023Z,18.35
2023-02-07T21:01:52.495Z,20.40
2023-02-07T21:04:19.760Z,17.70
2023-02-07T21:06:47.020Z,21.70
2023-02-07T21:09:14.610Z,20.02
2023-02-07T21:11:43.542Z,20.50
2023-02-07T21:14:15.700Z,20.23
2023-02-07T21:16:43.066Z,21.42
2023-02-07T21:19:10.580Z,21.38
2023-02-07T21:21:37.928Z,19.27
2023-02-07T21:24:05.383Z,18.60
2023-02-07T21:26:32.619Z,20.77
2023-02-07T21:29:00.713Z,18.13
2023-02-07T21:31:28.504Z,19.73
2023-02-07T21:33:55.797Z,20.85
2023-02-07T21:36:24.531Z,19.35
2023-02-07T21:38:53.012Z,19.55
2023-02-07T21:41:21.760Z,15.25
2023-02-07T21:43:49.266Z,19.30
2023-02-07T21:46:18.392Z,18.92
2023-02-07T21:48:47.349Z,24.58
2023-02-07T21:51:19.266Z,19.63
2023-02-07T21:53:46.826Z,20.48
2023-02-07T21:56:15.918Z,19.60
2023-02-07T21:58:43.711Z,21.70
2023-02-07T22:01:12.438Z,18.73
2023-02-07T22:03:41.742Z,17.55
2023-02-07T22:06:09.708Z,18.13
2023-02-07T22:08:37.615Z,20.70
2023-02-07T22:11:05.647Z,21.13
2023-02-07T22:13:33.419Z,21.13
2023-02-07T22:16:01.077Z,23.33
2023-02-07T22:18:28.667Z,22.40
2023-02-07T22:20:56.173Z,24.30
2023-02-07T22:23:23.375Z,24.58
2023-02-07T22:25:52.377Z,24.38
2023-02-07T22:28:19.646Z,24.17
2023-02-07T22:30:47.401Z,23.85
2023-02-07T22:33:15.070Z,24.45
2023-02-07T22:35:43.526Z,22.70
2023-02-07T22:38:11.874Z,24.65
2023-02-07T22:40:39.831Z,21.35
2023-02-07T22:43:08.226Z,22.00
2023-02-07T22:45:39.291Z,20.58
2023-02-07T22:48:07.061Z,23.00
2023-02-07T22:50:34.263Z,19.85
2023-02-07T22:53:01.555Z,21.17
2023-02-07T22:55:28.771Z,22.80
2023-02-07T22:57:57.189Z,21.75
2023-02-07T23:00:24.759Z,20.27
2023-02-07T23:02:52.027Z,22.50
2023-02-07T23:05:19.365Z,21.63
2023-02-07T23:07:48.217Z,18.85
2023-02-07T23:10:15.785Z,21.25
2023-02-07T23:12:43.787Z,18.65
2023-02-07T23:15:11.155Z,21.00
2023-02-07T23:17:38.710Z,20.92
2023-02-07T23:20:06.357Z,21.23
2023-02-07T23:22:36.360Z,18.95
2023-02-07T23:25:03.636Z,19.52
2023-02-07T23:27:30.870Z,20.50
2023-02-07T23:29:58.181Z,19.63
2023-02-07T23:32:25.382Z,18.98
2023-02-07T23:34:52.694Z,19.90
2023-02-07T23:37:22.341Z,21.08
2023-02-07T23:39:49.582Z,22.15
2023-02-07T23:42:16.820Z,23.33
2023-02-07T23:44:44.068Z,22.83
2023-02-07T23:47:11.311Z,22.52
2023-02-07T23:49:38.722Z,19.60
2023-02-07T23:52:05.957Z,23.35
2023-02-07T23:54:33.257Z,22.73
2023-02-07T23:57:00.476Z,22.63
2023-02-07T23:59:27.795Z,22.50
